KIDA/IDA METAR and TAF weather

Enter ICAO airport designator
Station Type Date Time Source
KIDA METAR 2021/09/20 05:53 UTC NOAA

KIDA 200553Z AUTO 21010KT 10SM CLR 07/04 A3015 RMK AO2 SLP205 60000 T00670044 10089 20067 53014


Station Type Date Time Source
KIDA Decoded METAR 2021/09/20 05:53 UTC NOAA

IDAHO FALLS REGIONAL AIRPORT, ID, United States (KIDA) 43-31N 112-04W 1453M
Sep 20, 2021 - 01:53 AM EDT / 2021.09.20 0553 UTC
Wind: from the SSW (210 degrees) at 12 MPH (10 KT):0
Visibility: 10 mile(s):0
Sky conditions: clear
Temperature: 44.1 F (6.7 C)
Dew Point: 39.9 F (4.4 C)
Relative Humidity: 85%
Pressure (altimeter): 30.15 in. Hg (1020 hPa)
Pressure tendency: 0.04 inches (1.4 hPa) higher than three hours ago
ob: KIDA 200553Z AUTO 21010KT 10SM CLR 07/04 A3015 RMK AO2 SLP205 60000 T00670044 10089 20067 53014
cycle: 6

Station Type Date Time Source
KIDA TAF 2021/09/20 06:22 UTC NOAA

TAF KIDA 200520Z 2006/2106 20009KT P6SM OVC100
FM201000 21009KT P6SM FEW120
FM201800 21010KT P6SM BKN120
FM210300 18006KT P6SM SKC

Example: see airport list